Time;durP1;ratioP1;P1;durP2;ratioP2;P2;SDS_P1;SDS_P2;PMS_P1;PMS_P2;Temp;Humidity;BMP_temperature;BMP_pressure;BME280_temperature;BME280_humidity;BME280_pressure;Samples;Min_cycle;Max_cycle;Signal;HPM_P1;HPM_P2
2023/05/26 00:00:20;;;;;;;26.33;4.20;;;9.40;99.90;;;;;;5142441;27;20349;-71
2023/05/26 00:02:46;;;;;;;25.98;4.82;;;9.30;99.90;;;;;;5110205;28;20044;-72
2023/05/26 00:05:13;;;;;;;22.75;4.10;;;9.30;99.90;;;;;;5109959;28;20042;-73
2023/05/26 00:07:42;;;;;;;21.88;5.10;;;9.30;99.90;;;;;;5109479;28;20445;-71
2023/05/26 00:10:11;;;;;;;33.58;4.70;;;9.30;99.90;;;;;;5109534;28;20048;-71
2023/05/26 00:12:37;;;;;;;22.23;4.32;;;9.30;99.90;;;;;;5110277;28;20097;-72
2023/05/26 00:15:04;;;;;;;23.20;4.20;;;9.30;99.90;;;;;;5108880;28;20130;-74
2023/05/26 00:17:30;;;;;;;27.23;4.25;;;9.30;99.90;;;;;;5108438;28;20043;-70
2023/05/26 00:19:59;;;;;;;26.08;4.63;;;9.30;99.90;;;;;;5109534;28;20055;-71
2023/05/26 00:22:26;;;;;;;27.13;5.80;;;9.30;99.90;;;;;;5109197;28;20036;-72
2023/05/26 00:24:52;;;;;;;;;;;9.30;99.90;;;;;;5110916;28;20116;-71
2023/05/26 00:27:18;;;;;;;25.50;5.07;;;9.30;99.90;;;;;;5109974;28;19919;-71
2023/05/26 00:29:44;;;;;;;23.85;4.13;;;9.30;99.90;;;;;;5113124;28;20071;-73
2023/05/26 00:32:10;;;;;;;27.13;5.07;;;9.20;99.90;;;;;;5112369;28;20039;-72
2023/05/26 00:34:36;;;;;;;31.17;4.78;;;9.20;99.90;;;;;;5113741;28;20081;-71
2023/05/26 00:37:02;;;;;;;27.05;3.92;;;9.20;99.90;;;;;;5112470;28;20043;-72
2023/05/26 00:39:28;;;;;;;30.55;4.47;;;9.20;99.90;;;;;;5113202;28;20043;-72
2023/05/26 00:41:54;;;;;;;25.20;4.45;;;9.20;99.90;;;;;;5113568;28;20606;-71
2023/05/26 00:44:21;;;;;;;27.15;4.60;;;9.20;99.90;;;;;;5112557;28;20043;-72
2023/05/26 00:46:47;;;;;;;28.00;4.50;;;9.20;99.90;;;;;;5110228;28;20100;-71
2023/05/26 00:49:12;;;;;;;31.08;4.70;;;9.20;99.90;;;;;;5116256;27;20056;-72
2023/05/26 00:51:39;;;;;;;30.17;4.75;;;9.10;99.90;;;;;;5093454;28;20055;-71
2023/05/26 00:54:05;;;;;;;;;;;9.10;99.90;;;;;;5093822;28;20044;-71
2023/05/26 00:56:32;;;;;;;34.43;4.93;;;9.10;99.90;;;;;;5092966;28;20022;-71
2023/05/26 00:59:02;;;;;;;23.58;3.85;;;9.00;99.90;;;;;;5092766;28;20058;-73
2023/05/26 01:01:29;;;;;;;28.88;4.65;;;9.00;99.90;;;;;;5092702;28;20187;-71
2023/05/26 01:03:55;;;;;;;29.38;4.60;;;8.90;99.90;;;;;;5090291;28;20052;-71
2023/05/26 01:06:22;;;;;;;26.05;4.43;;;8.90;99.90;;;;;;5092467;28;20136;-71
2023/05/26 01:08:48;;;;;;;24.45;4.75;;;8.90;99.90;;;;;;5093068;28;20494;-71
2023/05/26 01:11:26;;;;;;;27.08;4.60;;;8.80;99.90;;;;;;5092472;28;20370;-71
2023/05/26 01:13:57;;;;;;;20.30;4.10;;;8.80;99.90;;;;;;5092581;28;20077;-71
2023/05/26 01:16:27;;;;;;;29.75;4.80;;;8.70;99.90;;;;;;5092116;28;20528;-72
2023/05/26 01:19:07;;;;;;;29.38;5.18;;;8.60;99.90;;;;;;5090930;28;20162;-70
2023/05/26 01:21:34;;;;;;;23.42;4.78;;;8.60;99.90;;;;;;5092466;28;20056;-71
2023/05/26 01:24:26;;;;;;;25.23;4.22;;;8.60;99.90;;;;;;5092840;28;20051;-71
2023/05/26 01:27:17;;;;;;;27.88;4.32;;;8.50;99.90;;;;;;5092522;28;20044;-71
2023/05/26 01:29:45;;;;;;;25.23;4.43;;;8.50;99.90;;;;;;5092721;28;20056;-70
2023/05/26 01:32:14;;;;;;;24.20;4.15;;;8.50;99.90;;;;;;5090922;28;20044;-76
2023/05/26 01:34:40;;;;;;;24.33;4.75;;;8.50;99.90;;;;;;5091867;28;20420;-71
2023/05/26 01:37:06;;;;;;;24.23;4.97;;;8.40;99.90;;;;;;5125275;27;20048;-70
2023/05/26 01:39:33;;;;;;;34.85;4.50;;;8.40;99.90;;;;;;5102257;28;20219;-72
2023/05/26 01:42:18;;;;;;;25.83;4.60;;;8.40;99.90;;;;;;5112371;28;20044;-71
2023/05/26 01:44:56;;;;;;;29.60;5.45;;;8.30;99.90;;;;;;5112630;28;20112;-71
2023/05/26 01:47:23;;;;;;;29.85;4.57;;;8.30;99.90;;;;;;5110399;28;20043;-73
2023/05/26 01:49:51;;;;;;;25.23;4.57;;;8.30;99.90;;;;;;5111707;28;20569;-71
2023/05/26 01:52:18;;;;;;;26.17;4.00;;;8.30;99.90;;;;;;5112064;27;20039;-70
2023/05/26 01:54:53;;;;;;;27.35;5.05;;;8.20;99.90;;;;;;5112492;28;20134;-71
2023/05/26 01:57:20;;;;;;;28.33;5.22;;;8.20;99.90;;;;;;5110580;28;20452;-72
2023/05/26 01:59:45;;;;;;;28.17;4.78;;;8.20;99.90;;;;;;5112431;28;20051;-71
2023/05/26 02:02:11;;;;;;;26.05;4.72;;;8.10;99.90;;;;;;5111827;28;20119;-74
2023/05/26 02:04:37;;;;;;;20.50;4.50;;;8.10;99.90;;;;;;5092538;28;20481;-71
2023/05/26 02:07:05;;;;;;;25.35;5.13;;;8.10;99.90;;;;;;5112124;28;20151;-72
2023/05/26 02:09:31;;;;;;;27.58;5.00;;;8.10;99.90;;;;;;5111713;28;20053;-71
2023/05/26 02:11:57;;;;;;;;;;;8.10;99.90;;;;;;5112677;28;20454;-72
2023/05/26 02:14:23;;;;;;;26.52;4.43;;;8.10;99.90;;;;;;5110082;28;19931;-70
2023/05/26 02:16:48;;;;;;;25.40;4.50;;;8.10;99.90;;;;;;5112165;28;20101;-70
2023/05/26 02:19:14;;;;;;;28.60;5.07;;;8.00;99.90;;;;;;5108901;28;20039;-71
2023/05/26 02:21:40;;;;;;;31.25;6.30;;;8.00;99.90;;;;;;5111690;28;20076;-71
2023/05/26 02:24:07;;;;;;;23.23;3.92;;;7.90;99.90;;;;;;5111707;28;20527;-70
2023/05/26 02:26:32;;;;;;;24.05;3.90;;;7.90;99.90;;;;;;5111215;28;20056;-70
2023/05/26 02:28:58;;;;;;;24.88;4.03;;;7.80;99.90;;;;;;5111377;28;20047;-71
2023/05/26 02:31:24;;;;;;;21.77;4.25;;;7.70;99.90;;;;;;5111627;28;20040;-70
2023/05/26 02:33:50;;;;;;;21.33;4.63;;;7.60;99.90;;;;;;5108796;28;20043;-71
2023/05/26 02:36:16;;;;;;;28.80;4.88;;;7.60;99.90;;;;;;5111725;28;20485;-73
2023/05/26 02:38:42;;;;;;;25.05;5.13;;;7.60;99.90;;;;;;5111260;28;20176;-71
2023/05/26 02:41:08;;;;;;;24.35;4.68;;;7.50;99.90;;;;;;5111750;28;20047;-70
2023/05/26 02:43:34;;;;;;;25.15;4.72;;;7.50;99.90;;;;;;5109520;28;20047;-70
2023/05/26 02:46:00;;;;;;;23.27;4.30;;;7.50;99.90;;;;;;5107025;28;20055;-71
2023/05/26 02:48:26;;;;;;;24.60;4.28;;;7.50;99.90;;;;;;5088449;28;20055;-71
2023/05/26 02:50:54;;;;;;;28.95;5.28;;;7.50;99.90;;;;;;5123011;27;20058;-70
2023/05/26 02:53:21;;;;;;;25.73;4.18;;;7.50;99.90;;;;;;5123569;27;20044;-75
2023/05/26 02:55:47;;;;;;;22.90;4.25;;;7.50;99.90;;;;;;5090925;28;20757;-72
2023/05/26 02:58:13;;;;;;;23.77;4.03;;;7.50;99.90;;;;;;5123704;27;20050;-70
2023/05/26 03:00:39;;;;;;;17.73;3.65;;;7.50;99.90;;;;;;5090632;28;20048;-70
2023/05/26 03:03:05;;;;;;;27.33;4.80;;;7.50;99.90;;;;;;5089403;28;20074;-72
2023/05/26 03:05:31;;;;;;;21.33;3.92;;;7.40;99.90;;;;;;5090493;28;20505;-71
2023/05/26 03:07:57;;;;;;;20.30;4.15;;;7.40;99.90;;;;;;5123320;27;20555;-70
2023/05/26 03:10:23;;;;;;;25.10;4.30;;;7.40;99.90;;;;;;5090519;28;20099;-71
2023/05/26 03:12:48;;;;;;;17.38;3.67;;;7.40;99.90;;;;;;5090307;28;20123;-71
2023/05/26 03:15:14;;;;;;;23.27;3.95;;;7.30;99.90;;;;;;5090897;28;20101;-71
2023/05/26 03:17:40;;;;;;;20.80;3.85;;;7.30;99.90;;;;;;5088431;28;20682;-72
2023/05/26 03:20:06;;;;;;;23.00;4.88;;;7.30;99.90;;;;;;5090784;28;20106;-71
2023/05/26 03:22:31;;;;;;;24.13;4.47;;;7.20;99.90;;;;;;5072486;28;20130;-72
2023/05/26 03:24:57;;;;;;;17.45;4.25;;;7.20;99.90;;;;;;5090701;28;20132;-71
2023/05/26 03:27:23;;;;;;;23.98;4.30;;;7.20;99.90;;;;;;5089855;28;20048;-76
2023/05/26 03:29:50;;;;;;;19.00;3.63;;;7.20;99.90;;;;;;5106455;28;20048;-71
2023/05/26 03:32:16;;;;;;;26.55;3.90;;;7.30;99.90;;;;;;5089636;28;20413;-72
2023/05/26 03:34:44;;;;;;;24.45;4.43;;;7.20;99.90;;;;;;5089315;28;20048;-71
2023/05/26 03:37:11;;;;;;;23.38;4.18;;;7.20;99.90;;;;;;5090727;28;20052;-71
2023/05/26 03:39:37;;;;;;;19.50;4.22;;;7.20;99.90;;;;;;5090230;28;20477;-70
2023/05/26 03:42:03;;;;;;;21.83;4.05;;;7.10;99.90;;;;;;5090533;28;20232;-71
2023/05/26 03:44:28;;;;;;;22.25;4.05;;;7.10;99.90;;;;;;5088357;28;20477;-72
2023/05/26 03:46:54;;;;;;;21.88;4.80;;;7.10;99.90;;;;;;5090027;28;20131;-73
2023/05/26 03:49:20;;;;;;;32.50;4.15;;;7.10;99.90;;;;;;5087858;28;20044;-72
2023/05/26 03:51:46;;;;;;;22.42;3.90;;;7.10;99.90;;;;;;5122556;28;20088;-72
2023/05/26 03:54:11;;;;;;;24.00;4.53;;;7.10;99.90;;;;;;5100201;28;20043;-71
2023/05/26 03:56:37;;;;;;;26.67;5.20;;;7.20;99.90;;;;;;5110443;28;20043;-70
2023/05/26 03:59:03;;;;;;;25.23;4.85;;;7.20;99.90;;;;;;5110442;28;20193;-70
2023/05/26 04:01:29;;;;;;;26.02;4.82;;;7.10;99.90;;;;;;5109765;28;20051;-71
2023/05/26 04:03:55;;;;;;;26.08;4.10;;;7.10;99.90;;;;;;5112892;28;20036;-70
2023/05/26 04:06:22;;;;;;;25.98;4.28;;;7.10;99.90;;;;;;5113486;28;20074;-71
2023/05/26 04:08:48;;;;;;;21.58;4.18;;;7.20;99.90;;;;;;5112830;28;20404;-70
2023/05/26 04:11:15;;;;;;;20.60;3.88;;;7.10;99.90;;;;;;5114875;28;20126;-71
2023/05/26 04:13:41;;;;;;;23.33;4.85;;;7.10;99.90;;;;;;5113682;28;20177;-71
2023/05/26 04:16:07;;;;;;;25.20;4.68;;;7.10;99.90;;;;;;5114424;28;20134;-71
2023/05/26 04:18:33;;;;;;;24.52;4.47;;;7.20;99.90;;;;;;5111942;28;20201;-71
2023/05/26 04:20:59;;;;;;;32.80;4.85;;;7.20;99.90;;;;;;5114304;28;20044;-71
2023/05/26 04:23:25;;;;;;;28.88;4.97;;;7.20;99.90;;;;;;5112955;28;20385;-75
2023/05/26 04:25:51;;;;;;;25.45;4.25;;;7.20;99.90;;;;;;5114122;28;20101;-71
2023/05/26 04:28:16;;;;;;;19.58;4.45;;;7.20;99.90;;;;;;5113548;28;20101;-70
2023/05/26 04:30:42;;;;;;;23.27;5.57;;;7.20;99.90;;;;;;5113766;28;20039;-71
2023/05/26 04:33:09;;;;;;;24.58;5.13;;;7.20;99.90;;;;;;5112281;28;20530;-71
2023/05/26 04:35:35;;;;;;;22.17;4.70;;;7.20;99.90;;;;;;5112268;28;20048;-71
2023/05/26 04:38:04;;;;;;;29.20;5.38;;;7.30;99.90;;;;;;5114050;27;20120;-71
2023/05/26 04:40:32;;;;;;;22.67;4.65;;;7.20;99.90;;;;;;5113544;28;20049;-71
2023/05/26 04:42:59;;;;;;;27.77;5.28;;;7.20;99.90;;;;;;5113398;28;20374;-71
2023/05/26 04:45:25;;;;;;;24.48;4.75;;;7.30;99.90;;;;;;5113969;28;20128;-71
2023/05/26 04:47:50;;;;;;;23.83;4.63;;;7.40;99.90;;;;;;5111304;28;20136;-71
2023/05/26 04:50:16;;;;;;;28.25;5.43;;;7.40;99.90;;;;;;5112735;28;20058;-71
2023/05/26 04:52:42;;;;;;;26.73;5.18;;;7.40;99.90;;;;;;5113312;28;20043;-71
2023/05/26 04:55:09;;;;;;;20.33;4.68;;;7.40;99.90;;;;;;5113692;28;20040;-71
2023/05/26 04:57:35;;;;;;;31.98;5.43;;;7.50;99.90;;;;;;5112783;28;20405;-71
2023/05/26 05:00:01;;;;;;;27.77;4.82;;;7.50;99.90;;;;;;5113634;28;20062;-70
2023/05/26 05:02:26;;;;;;;29.50;4.93;;;7.60;99.90;;;;;;5091079;28;20083;-73
2023/05/26 05:04:52;;;;;;;34.60;5.75;;;7.70;99.90;;;;;;5092785;28;20044;-71
2023/05/26 05:07:18;;;;;;;29.20;5.43;;;7.80;99.90;;;;;;5092327;28;20124;-71
2023/05/26 05:09:44;;;;;;;33.85;5.82;;;7.90;99.90;;;;;;5092610;28;20052;-71
2023/05/26 05:12:10;;;;;;;24.05;4.95;;;8.00;99.90;;;;;;5092488;28;20497;-75
2023/05/26 05:14:36;;;;;;;31.35;5.00;;;8.00;99.90;;;;;;5091572;28;20083;-71
2023/05/26 05:17:02;;;;;;;23.90;5.18;;;8.10;99.90;;;;;;5140923;27;20073;-71
2023/05/26 05:19:28;;;;;;;26.35;4.75;;;8.10;99.90;;;;;;5111456;28;20375;-71
2023/05/26 05:21:54;;;;;;;;;;;8.20;99.90;;;;;;5113341;28;20055;-71
2023/05/26 05:24:20;;;;;;;30.98;4.75;;;8.30;99.90;;;;;;5112142;28;19968;-72
2023/05/26 05:26:46;;;;;;;31.75;4.53;;;8.40;99.90;;;;;;5112567;28;20070;-71
2023/05/26 05:29:11;;;;;;;28.30;5.45;;;8.50;99.90;;;;;;5112540;28;20148;-71
2023/05/26 05:31:38;;;;;;;38.13;5.57;;;8.60;99.90;;;;;;5111638;28;20135;-71
2023/05/26 05:34:04;;;;;;;33.65;5.00;;;8.70;99.90;;;;;;5111088;28;20372;-71
2023/05/26 05:36:30;;;;;;;28.92;4.60;;;8.70;99.90;;;;;;5111575;28;20042;-70
2023/05/26 05:38:55;;;;;;;32.78;6.18;;;8.80;99.90;;;;;;5112405;28;20683;-72
2023/05/26 05:41:21;;;;;;;32.13;6.13;;;9.00;99.90;;;;;;5094877;28;20044;-72
2023/05/26 05:43:47;;;;;;;26.70;4.93;;;9.00;99.90;;;;;;5110824;28;20039;-72
2023/05/26 05:46:12;;;;;;;41.40;5.55;;;9.10;99.90;;;;;;5111516;28;20096;-71
2023/05/26 05:48:39;;;;;;;26.88;4.63;;;9.20;99.90;;;;;;5110294;28;20044;-73
2023/05/26 05:51:05;;;;;;;26.17;4.60;;;9.30;99.90;;;;;;5112737;28;20051;-71
2023/05/26 05:53:31;;;;;;;31.95;4.95;;;9.30;99.90;;;;;;5112614;28;20046;-73
2023/05/26 05:55:56;;;;;;;34.20;5.25;;;9.40;99.90;;;;;;5111138;28;20044;-71
2023/05/26 05:58:22;;;;;;;34.17;5.18;;;9.50;99.90;;;;;;5111894;28;20047;-70
2023/05/26 06:00:48;;;;;;;30.63;5.35;;;9.60;99.90;;;;;;5112017;28;20049;-70
2023/05/26 06:03:13;;;;;;;24.10;4.63;;;9.70;99.90;;;;;;5110511;28;20507;-71
2023/05/26 06:05:40;;;;;;;31.48;5.90;;;9.80;99.90;;;;;;5112065;28;20535;-76
2023/05/26 06:08:05;;;;;;;;;;;10.00;99.90;;;;;;5112532;28;20063;-71
2023/05/26 06:10:31;;;;;;;30.50;4.47;;;10.10;99.90;;;;;;5112301;28;19923;-71
2023/05/26 06:12:57;;;;;;;25.30;4.35;;;10.20;99.90;;;;;;5108111;28;20101;-71
2023/05/26 06:15:22;;;;;;;29.83;4.95;;;10.30;99.90;;;;;;5094773;28;20989;-72
2023/05/26 06:17:48;;;;;;;27.65;5.55;;;10.30;99.90;;;;;;5093585;28;20079;-71
2023/05/26 06:20:14;;;;;;;33.95;4.55;;;10.40;99.90;;;;;;5091398;28;20040;-71
2023/05/26 06:22:40;;;;;;;18.30;4.13;;;10.50;99.90;;;;;;5091526;28;20047;-74
2023/05/26 06:25:06;;;;;;;26.35;4.35;;;10.50;99.90;;;;;;5101164;28;20054;-72
2023/05/26 06:27:32;;;;;;;27.85;4.80;;;10.50;99.90;;;;;;5111456;28;20052;-71
2023/05/26 06:29:58;;;;;;;27.13;5.60;;;10.50;99.90;;;;;;5144783;27;20043;-75
2023/05/26 06:32:24;;;;;;;29.63;4.75;;;10.60;99.90;;;;;;5126281;27;20046;-76
2023/05/26 06:34:49;;;;;;;27.45;5.13;;;10.60;99.90;;;;;;5109847;28;20111;-73
2023/05/26 06:37:15;;;;;;;23.35;4.55;;;10.70;99.90;;;;;;5110703;28;20131;-75
2023/05/26 06:39:41;;;;;;;29.30;4.25;;;10.70;99.90;;;;;;5094678;28;20048;-83
2023/05/26 06:42:06;;;;;;;23.33;5.05;;;10.80;99.90;;;;;;5094591;28;20590;-83
2023/05/26 06:44:35;;;;;;;23.67;4.47;;;10.80;99.90;;;;;;5094254;28;20051;-83
2023/05/26 06:47:01;;;;;;;23.83;4.25;;;10.90;99.90;;;;;;5077544;28;20051;-84
2023/05/26 06:49:27;;;;;;;25.17;4.38;;;11.00;99.90;;;;;;5110663;28;20044;-84
2023/05/26 06:51:52;;;;;;;19.58;4.20;;;11.10;99.90;;;;;;5077951;28;20138;-83
2023/05/26 06:54:18;;;;;;;25.58;4.70;;;11.20;99.90;;;;;;5111778;28;20101;-84
2023/05/26 06:56:44;;;;;;;24.83;4.65;;;11.20;99.90;;;;;;5094883;28;20036;-84
2023/05/26 06:59:09;;;;;;;25.25;4.35;;;11.30;99.90;;;;;;5094162;28;20101;-84
2023/05/26 07:01:35;;;;;;;23.38;4.45;;;11.40;99.90;;;;;;5094711;28;20469;-84
2023/05/26 07:04:01;;;;;;;24.83;4.22;;;11.50;99.90;;;;;;5109821;28;20039;-84
2023/05/26 07:06:27;;;;;;;18.73;3.85;;;11.60;99.90;;;;;;5094328;28;20138;-84
2023/05/26 07:08:52;;;;;;;25.63;4.30;;;11.60;99.90;;;;;;5093633;28;20055;-83
2023/05/26 07:11:18;;;;;;;27.23;4.53;;;11.70;99.90;;;;;;5094606;28;20048;-84
2023/05/26 07:13:46;;;;;;;32.40;4.40;;;11.80;99.90;;;;;;5093775;28;20091;-83
2023/05/26 07:16:11;;;;;;;25.70;5.28;;;11.90;99.90;;;;;;5110954;28;20078;-84
2023/05/26 07:18:37;;;;;;;17.98;4.28;;;12.00;99.90;;;;;;5109852;28;20042;-79
2023/05/26 07:21:03;;;;;;;20.77;3.97;;;12.00;99.90;;;;;;5093430;28;20056;-74
2023/05/26 07:23:28;;;;;;;29.88;4.03;;;12.10;99.90;;;;;;5111561;28;20118;-75
2023/05/26 07:25:54;;;;;;;20.63;3.80;;;12.10;99.90;;;;;;5110467;28;20039;-80
2023/05/26 07:28:20;;;;;;;21.40;3.97;;;12.20;99.90;;;;;;5110047;28;20057;-81
2023/05/26 07:30:46;;;;;;;28.23;4.10;;;12.30;99.90;;;;;;5094517;28;20422;-81
2023/05/26 07:33:11;;;;;;;18.73;4.00;;;12.30;99.90;;;;;;5109350;28;20092;-79
2023/05/26 07:35:37;;;;;;;24.63;4.43;;;12.30;99.90;;;;;;5110759;28;20055;-84
2023/05/26 07:38:03;;;;;;;23.67;4.10;;;12.30;99.90;;;;;;5079751;28;20109;-84
2023/05/26 07:40:34;;;;;;;23.52;4.32;;;12.30;99.90;;;;;;5080711;28;20039;-84
2023/05/26 07:43:00;;;;;;;22.63;4.30;;;12.30;99.90;;;;;;5113735;28;20484;-84
2023/05/26 07:45:26;;;;;;;23.10;4.72;;;12.30;99.90;;;;;;5114439;28;20135;-82
2023/05/26 07:47:51;;;;;;;23.30;4.32;;;12.20;99.90;;;;;;5111746;28;20476;-84
2023/05/26 07:50:17;;;;;;;18.70;4.13;;;12.20;99.90;;;;;;5098872;27;20040;-83
2023/05/26 07:52:43;;;;;;;24.52;4.00;;;12.30;99.90;;;;;;5125955;27;20047;-84
2023/05/26 07:55:08;;;;;;;21.75;4.13;;;12.40;99.90;;;;;;5097594;28;20051;-83
2023/05/26 07:57:34;;;;;;;22.25;3.70;;;12.50;99.90;;;;;;5125762;27;20048;-83
2023/05/26 08:00:00;;;;;;;18.65;3.90;;;12.50;99.90;;;;;;5092974;28;20101;-83
2023/05/26 08:02:26;;;;;;;20.15;4.00;;;12.60;99.90;;;;;;5125021;27;20051;-84
2023/05/26 08:04:51;;;;;;;;;;;12.60;99.90;;;;;;5108972;28;20050;-84
2023/05/26 08:07:17;;;;;;;17.55;3.55;;;12.60;99.90;;;;;;5111322;27;19923;-82
2023/05/26 08:09:43;;;;;;;16.02;3.47;;;12.70;99.90;;;;;;5109806;28;20071;-81
2023/05/26 08:12:09;;;;;;;22.08;4.32;;;12.80;99.90;;;;;;5144209;27;20082;-81
2023/05/26 08:14:35;;;;;;;27.77;4.38;;;12.80;99.90;;;;;;5112284;28;20039;-81
2023/05/26 08:17:00;;;;;;;27.98;4.13;;;12.80;99.90;;;;;;5129292;27;20075;-82
2023/05/26 08:19:26;;;;;;;19.67;3.92;;;12.90;99.90;;;;;;5111717;28;20082;-81
2023/05/26 08:21:52;;;;;;;20.23;3.83;;;12.90;99.90;;;;;;5130379;27;20043;-80
2023/05/26 08:24:19;;;;;;;18.77;4.22;;;13.00;99.90;;;;;;5112998;28;20794;-80
2023/05/26 08:26:45;;;;;;;19.67;4.07;;;13.00;99.90;;;;;;5129965;27;20092;-81
2023/05/26 08:29:11;;;;;;;23.52;4.03;;;13.00;99.90;;;;;;5129253;27;20126;-80
2023/05/26 08:31:36;;;;;;;17.27;4.10;;;13.00;99.90;;;;;;5130066;27;20533;-80
2023/05/26 08:34:02;;;;;;;21.17;4.45;;;13.10;99.90;;;;;;5096240;28;20040;-81
2023/05/26 08:36:28;;;;;;;23.73;3.80;;;13.20;99.90;;;;;;5113321;28;20058;-81
2023/05/26 08:38:53;;;;;;;20.95;4.35;;;13.30;99.90;;;;;;5130331;27;20384;-81
2023/05/26 08:41:22;;;;;;;21.25;4.55;;;13.40;99.90;;;;;;5095435;28;20044;-81
2023/05/26 08:43:54;;;;;;;23.48;3.70;;;13.40;99.90;;;;;;5100950;28;20405;-81
2023/05/26 08:46:22;;;;;;;22.00;4.05;;;13.50;99.90;;;;;;5097536;28;20043;-79
2023/05/26 08:48:48;;;;;;;20.27;3.72;;;13.60;99.90;;;;;;5110380;28;20063;-84
2023/05/26 08:51:14;;;;;;;17.10;3.55;;;13.70;99.90;;;;;;5117130;27;20044;-81
2023/05/26 08:53:40;;;;;;;15.25;3.90;;;13.80;99.90;;;;;;5128923;27;20048;-81
2023/05/26 08:56:07;;;;;;;21.98;4.15;;;13.90;99.90;;;;;;5117020;27;20106;-81
2023/05/26 08:58:34;;;;;;;19.40;3.72;;;14.00;99.90;;;;;;5104699;28;20233;-81
2023/05/26 09:01:03;;;;;;;25.70;4.55;;;14.00;99.90;;;;;;5109354;27;20367;-81
2023/05/26 09:03:29;;;;;;;20.40;4.57;;;14.10;99.90;;;;;;5097570;28;20071;-80
2023/05/26 09:05:55;;;;;;;16.15;3.65;;;14.20;99.90;;;;;;5129542;27;20037;-80
2023/05/26 09:08:21;;;;;;;18.20;3.92;;;14.20;99.90;;;;;;5111489;28;20048;-79
2023/05/26 09:10:47;;;;;;;19.83;3.63;;;14.30;99.90;;;;;;5127210;27;20056;-80
2023/05/26 09:13:13;;;;;;;22.45;4.13;;;14.40;99.90;;;;;;5128575;27;20042;-79
2023/05/26 09:15:40;;;;;;;20.23;3.90;;;14.40;99.90;;;;;;5112545;28;20399;-83
2023/05/26 09:18:11;;;;;;;15.80;3.85;;;14.50;99.90;;;;;;5106093;28;20135;-79
2023/05/26 09:20:41;;;;;;;15.60;3.42;;;14.60;99.90;;;;;;5129118;27;20044;-82
2023/05/26 09:23:06;;;;;;;17.38;3.55;;;14.70;99.90;;;;;;5112241;28;20075;-80
2023/05/26 09:25:43;;;;;;;15.65;4.22;;;14.70;99.90;;;;;;5099150;28;20477;-80
2023/05/26 09:28:11;;;;;;;20.80;3.85;;;14.70;99.90;;;;;;5111180;28;20400;-80
2023/05/26 09:30:43;;;;;;;21.33;3.85;;;14.70;99.90;;;;;;5106592;28;20052;-80
2023/05/26 09:33:15;;;;;;;13.30;3.13;;;14.70;99.90;;;;;;5107023;28;20047;-80
2023/05/26 09:35:42;;;;;;;21.02;3.60;;;14.80;99.90;;;;;;5092232;28;20106;-81
2023/05/26 09:38:09;;;;;;;18.35;4.10;;;14.80;99.90;;;;;;5138389;27;20040;-81
2023/05/26 09:40:47;;;;;;;19.67;3.78;;;14.90;99.90;;;;;;5112224;28;20047;-80
2023/05/26 09:43:15;;;;;;;18.58;3.75;;;14.90;99.90;;;;;;5115368;27;20063;-80
2023/05/26 09:45:41;;;;;;;19.80;3.97;;;15.10;99.90;;;;;;5125555;27;20055;-81
2023/05/26 09:48:09;;;;;;;17.15;3.50;;;15.20;99.90;;;;;;5096178;28;20496;-84
2023/05/26 09:50:36;;;;;;;20.60;3.60;;;15.30;99.90;;;;;;5112125;28;20043;-80
2023/05/26 09:53:10;;;;;;;17.55;4.85;;;15.40;99.90;;;;;;5111772;28;20043;-80
2023/05/26 09:55:42;;;;;;;19.48;3.58;;;15.40;99.90;;;;;;5111200;28;20480;-80
2023/05/26 09:58:12;;;;;;;22.35;3.75;;;15.50;99.90;;;;;;5095940;28;20093;-83
2023/05/26 10:00:43;;;;;;;14.43;3.88;;;15.50;99.90;;;;;;5090725;28;20123;-80
2023/05/26 10:03:10;;;;;;;20.80;3.80;;;15.60;99.90;;;;;;5073123;28;20051;-83
2023/05/26 10:05:45;;;;;;;19.45;3.67;;;15.60;99.90;;;;;;5111027;28;20126;-81
2023/05/26 10:08:16;;;;;;;15.23;3.50;;;15.70;99.90;;;;;;5090082;28;20051;-80
2023/05/26 10:10:44;;;;;;;17.75;3.42;;;15.80;99.90;;;;;;5092476;28;20648;-81
2023/05/26 10:13:10;;;;;;;14.55;3.17;;;15.90;99.90;;;;;;5090778;28;20040;-84
2023/05/26 10:15:36;;;;;;;16.23;4.07;;;16.00;99.90;;;;;;5108345;28;20084;-80
2023/05/26 10:18:02;;;;;;;14.98;3.67;;;16.10;99.90;;;;;;5123645;27;20493;-80
2023/05/26 10:20:29;;;;;;;20.05;3.55;;;16.20;99.90;;;;;;5073795;28;20135;-80
2023/05/26 10:23:07;;;;;;;18.27;3.55;;;16.20;99.90;;;;;;5123425;27;20044;-80
2023/05/26 10:25:46;;;;;;;14.52;3.38;;;16.30;99.90;;;;;;5127669;27;20105;-80
2023/05/26 10:28:37;;;;;;;15.63;3.45;;;16.40;99.90;;;;;;5102869;28;20052;-83
2023/05/26 10:31:03;;;;;;;15.73;3.20;;;16.50;95.60;;;;;;5108466;28;20056;-80
2023/05/26 10:33:43;;;;;;;16.73;3.15;;;16.50;97.70;;;;;;5089125;28;20406;-80
2023/05/26 10:36:13;;;;;;;14.80;3.38;;;16.60;96.70;;;;;;5125370;27;20096;-81
2023/05/26 10:38:44;;;;;;;16.73;3.80;;;16.70;96.60;;;;;;5091110;28;20055;-79
2023/05/26 10:41:11;;;;;;;13.82;3.00;;;16.70;94.80;;;;;;5090637;28;20043;-80
2023/05/26 10:43:37;;;;;;;16.35;3.28;;;16.80;93.60;;;;;;5089781;28;20515;-81
2023/05/26 10:46:04;;;;;;;12.60;2.97;;;16.90;92.70;;;;;;5094931;28;20040;-80
2023/05/26 10:48:39;;;;;;;14.73;3.22;;;17.00;92.30;;;;;;5089086;28;20062;-81
2023/05/26 10:51:06;;;;;;;15.60;3.72;;;17.00;90.80;;;;;;5107640;28;20058;-80
2023/05/26 10:53:34;;;;;;;15.93;3.63;;;17.00;91.10;;;;;;5093702;28;20192;-80
2023/05/26 10:56:03;;;;;;;12.63;3.00;;;17.20;90.60;;;;;;5111194;28;20050;-80
2023/05/26 10:58:32;;;;;;;17.42;3.13;;;17.30;88.70;;;;;;5110434;28;20480;-80
2023/05/26 11:01:02;;;;;;;15.80;3.30;;;17.30;89.00;;;;;;5110179;28;20420;-83
2023/05/26 11:03:36;;;;;;;14.35;3.45;;;17.40;90.70;;;;;;5108696;28;20048;-72
2023/05/26 11:06:06;;;;;;;16.33;3.60;;;17.50;91.00;;;;;;5110452;28;20043;-74
2023/05/26 11:08:48;;;;;;;10.75;2.70;;;17.60;90.20;;;;;;5124210;27;20165;-73
2023/05/26 11:11:28;;;;;;;18.95;2.95;;;17.70;86.30;;;;;;5090322;28;20060;-76
2023/05/26 11:14:04;;;;;;;13.15;3.10;;;17.80;87.60;;;;;;5089315;28;20055;-70
2023/05/26 11:16:34;;;;;;;14.35;3.17;;;17.80;88.00;;;;;;5089906;28;20047;-67
2023/05/26 11:19:03;;;;;;;13.35;3.00;;;18.00;86.30;;;;;;5088629;28;20413;-68
2023/05/26 11:21:31;;;;;;;16.98;3.28;;;18.10;81.90;;;;;;5094037;28;20664;-71
2023/05/26 11:23:58;;;;;;;12.07;3.13;;;18.10;82.50;;;;;;5110860;28;20043;-73
2023/05/26 11:26:26;;;;;;;12.27;2.95;;;18.30;82.50;;;;;;5106536;28;20619;-74
2023/05/26 11:28:52;;;;;;;12.05;2.90;;;18.50;81.30;;;;;;5088770;28;20051;-71
2023/05/26 11:31:22;;;;;;;13.05;3.50;;;18.70;82.30;;;;;;5097912;28;20048;-73
2023/05/26 11:33:48;;;;;;;13.52;3.65;;;19.50;81.10;;;;;;5093932;28;20101;-71
2023/05/26 11:36:18;;;;;;;14.50;3.05;;;20.60;75.80;;;;;;5090219;28;20159;-75
2023/05/26 11:38:45;;;;;;;11.13;2.97;;;22.10;69.30;;;;;;5090633;28;20099;-72
2023/05/26 11:41:14;;;;;;;13.40;3.55;;;23.50;65.20;;;;;;5090450;28;20378;-70
2023/05/26 11:43:43;;;;;;;13.25;3.00;;;25.80;56.80;;;;;;5109823;28;20043;-72
2023/05/26 11:46:10;;;;;;;14.95;3.33;;;26.20;57.70;;;;;;5109186;28;20056;-71
2023/05/26 11:48:39;;;;;;;12.35;3.08;;;;;;;;;;5139841;27;20051;-72
2023/05/26 11:51:09;;;;;;;12.63;2.97;;;;;;;;;;5106117;28;20044;-70
2023/05/26 11:53:37;;;;;;;11.38;3.10;;;29.30;49.00;;;;;;5096352;28;20040;-75
2023/05/26 11:56:08;;;;;;;15.38;3.13;;;30.40;48.10;;;;;;5100181;28;20039;-71
2023/05/26 11:58:41;;;;;;;12.20;3.30;;;31.60;45.40;;;;;;5143091;27;20058;-70
2023/05/26 12:01:08;;;;;;;11.32;3.03;;;32.20;44.40;;;;;;5110978;28;20051;-70
2023/05/26 12:03:37;;;;;;;13.90;3.40;;;32.40;43.40;;;;;;5092766;28;20044;-71
2023/05/26 12:06:22;;;;;;;12.60;2.67;;;32.20;42.90;;;;;;5089567;28;20048;-73
2023/05/26 12:08:59;;;;;;;11.15;3.08;;;32.00;41.70;;;;;;5088186;28;20648;-70
2023/05/26 12:11:37;;;;;;;11.38;3.28;;;31.70;42.80;;;;;;5090291;28;20138;-70
2023/05/26 12:14:04;;;;;;;13.48;3.13;;;31.40;72.80;;;;;;5109779;28;20082;-70
2023/05/26 12:16:38;;;;;;;12.20;2.92;;;31.20;42.10;;;;;;5110303;28;20051;-72
2023/05/26 12:19:12;;;;;;;12.95;3.03;;;31.10;41.80;;;;;;5087576;28;20716;-69
2023/05/26 12:21:44;;;;;;;18.30;3.45;;;31.10;42.70;;;;;;5094934;28;20095;-80
2023/05/26 12:24:10;;;;;;;13.02;3.50;;;31.10;41.50;;;;;;5095940;28;20111;-81
2023/05/26 12:26:37;;;;;;;13.65;2.85;;;31.40;41.80;;;;;;5113635;28;20464;-79
2023/05/26 12:29:16;;;;;;;13.40;3.20;;;32.40;40.90;;;;;;5106916;28;20075;-77
2023/05/26 12:31:44;;;;;;;14.25;3.50;;;33.60;39.90;;;;;;5112449;28;20079;-75
2023/05/26 12:34:12;;;;;;;15.80;3.55;;;34.50;39.40;;;;;;5110753;28;20055;-82
2023/05/26 12:36:38;;;;;;;12.48;3.40;;;34.30;38.10;;;;;;5112416;28;20393;-79
2023/05/26 12:39:05;;;;;;;12.50;3.42;;;33.70;37.70;;;;;;5112538;28;20039;-73
2023/05/26 12:41:31;;;;;;;15.88;4.05;;;33.20;38.40;;;;;;5111909;28;20047;-73
2023/05/26 12:43:59;;;;;;;13.07;3.42;;;33.00;38.40;;;;;;5113568;28;20055;-74